Time;durP1;ratioP1;P1;durP2;ratioP2;P2;SDS_P1;SDS_P2;PMS_P1;PMS_P2;Temp;Humidity;BMP_temperature;BMP_pressure;BME280_temperature;BME280_humidity;BME280_pressure;Samples;Min_cycle;Max_cycle;Signal;HPM_P1;HPM_P2
2021/04/05 00:02:08;;;;;;;14.13;5.75;;;;;;;5.12;65.86;100719.84;5069632;28;20036;-46
2021/04/05 00:04:33;;;;;;;16.63;6.75;;;;;;;5.20;65.62;100705.47;5068470;28;20046;-47
2021/04/05 00:06:59;;;;;;;13.95;6.15;;;;;;;5.10;66.03;100692.69;5069039;28;20079;-48
2021/04/05 00:09:25;;;;;;;19.23;5.97;;;;;;;5.12;65.75;100693.28;5067579;28;20156;-48
2021/04/05 00:11:50;;;;;;;13.25;5.85;;;;;;;5.14;65.67;100675.28;5057362;28;20043;-48
2021/04/05 00:14:16;;;;;;;15.50;6.68;;;;;;;4.97;66.35;100690.09;5068093;28;20031;-47
2021/04/05 00:16:41;;;;;;;18.95;6.40;;;;;;;5.04;65.93;100681.06;5071045;28;20505;-46
2021/04/05 00:19:09;;;;;;;17.33;6.05;;;;;;;5.05;65.77;100684.53;5070907;28;20393;-47
2021/04/05 00:21:34;;;;;;;16.77;7.50;;;;;;;4.96;66.26;100659.25;5058556;28;20405;-47
2021/04/05 00:24:00;;;;;;;13.52;6.88;;;;;;;5.02;66.11;100648.56;5068713;28;20028;-47
2021/04/05 00:26:25;;;;;;;15.35;7.20;;;;;;;4.97;66.17;100651.06;5067454;28;20039;-48
2021/04/05 00:28:51;;;;;;;13.32;6.75;;;;;;;4.91;66.72;100635.19;5069742;28;20039;-48
2021/04/05 00:31:17;;;;;;;19.38;7.63;;;;;;;5.02;65.99;100621.22;5066923;28;20478;-46
2021/04/05 00:33:43;;;;;;;20.05;7.80;;;;;;;4.98;66.01;100620.84;5070880;28;20115;-47
2021/04/05 00:36:09;;;;;;;17.60;7.45;;;;;;;4.91;66.52;100624.56;5066951;28;20116;-50
2021/04/05 00:38:35;;;;;;;21.35;8.93;;;;;;;4.94;66.43;100622.28;5065115;28;20036;-46
2021/04/05 00:41:07;;;;;;;13.40;6.30;;;;;;;5.03;65.70;100607.75;5068512;28;20024;-48
2021/04/05 00:43:34;;;;;;;22.73;7.65;;;;;;;4.95;66.21;100593.91;5068654;28;20677;-47
2021/04/05 00:46:01;;;;;;;19.00;8.20;;;;;;;5.05;65.73;100586.28;5073755;28;20505;-48
2021/04/05 00:48:27;;;;;;;18.45;7.40;;;;;;;5.03;65.82;100575.88;5068414;28;20466;-50
2021/04/05 00:50:55;;;;;;;24.70;7.75;;;;;;;4.95;66.48;100570.00;5072860;28;20108;-49
2021/04/05 00:53:30;;;;;;;17.67;7.75;;;;;;;4.96;66.25;100564.47;5070384;28;20048;-47
2021/04/05 00:55:58;;;;;;;;;;;;;;;4.97;66.17;100563.44;5073399;28;20105;-47
2021/04/05 00:58:25;;;;;;;17.95;8.25;;;;;;;4.91;66.62;100553.69;5072244;28;19912;-47
2021/04/05 01:00:59;;;;;;;17.50;7.90;;;;;;;4.96;66.16;100543.25;5072782;28;20035;-46
2021/04/05 01:03:25;;;;;;;17.85;8.55;;;;;;;4.78;66.95;100546.63;5068283;28;20112;-47
2021/04/05 01:05:55;;;;;;;19.38;8.40;;;;;;;4.80;66.97;100533.16;5073587;28;20097;-47
2021/04/05 01:08:22;;;;;;;19.02;8.48;;;;;;;4.70;67.43;100527.53;5071066;28;20035;-47
2021/04/05 01:10:47;;;;;;;15.40;8.65;;;;;;;4.73;66.98;100516.47;5067074;28;20032;-47
2021/04/05 01:13:14;;;;;;;15.88;7.70;;;;;;;4.82;66.58;100507.19;5072861;28;20032;-47
2021/04/05 01:15:40;;;;;;;15.30;8.15;;;;;;;4.65;67.27;100493.63;5073369;28;20214;-46
2021/04/05 01:18:06;;;;;;;17.20;8.93;;;;;;;4.69;67.59;100499.34;5075956;28;20126;-48
2021/04/05 01:20:33;;;;;;;15.27;8.30;;;;;;;4.63;67.57;100478.97;5075117;28;20587;-47
2021/04/05 01:23:00;;;;;;;16.02;7.32;;;;;;;4.76;66.91;100469.06;5071255;28;20035;-47
2021/04/05 01:25:27;;;;;;;18.25;7.78;;;;;;;4.71;67.06;100449.53;5074185;28;20336;-48
2021/04/05 01:27:54;;;;;;;17.38;7.75;;;;;;;4.68;67.09;100445.47;5063460;28;20035;-47
2021/04/05 01:30:36;;;;;;;16.38;7.35;;;;;;;4.78;66.75;100444.97;5071100;28;20103;-47
2021/04/05 01:33:11;;;;;;;17.40;8.77;;;;;;;4.68;67.05;100436.69;5072363;28;20024;-46
2021/04/05 01:35:40;;;;;;;;;;;;;;;4.50;68.08;100427.66;5071746;28;20033;-46
2021/04/05 01:38:06;;;;;;;14.75;7.85;;;;;;;4.53;67.79;100411.28;5071873;28;19921;-47
2021/04/05 01:40:43;;;;;;;12.35;7.32;;;;;;;4.59;67.66;100392.88;5074042;28;20077;-47
2021/04/05 01:43:10;;;;;;;14.32;8.07;;;;;;;4.64;67.38;100390.38;5071258;28;20042;-47
2021/04/05 01:45:36;;;;;;;17.30;7.78;;;;;;;4.57;67.69;100377.16;5072741;28;20110;-50
2021/04/05 01:48:01;;;;;;;13.85;6.88;;;;;;;4.55;67.92;100366.78;5073938;28;20027;-47
2021/04/05 01:50:27;;;;;;;17.60;7.95;;;;;;;4.43;68.56;100352.59;5072413;28;20482;-49
2021/04/05 01:52:53;;;;;;;16.45;7.70;;;;;;;4.49;67.87;100350.94;5071599;28;20024;-47
2021/04/05 01:55:19;;;;;;;13.80;7.75;;;;;;;4.40;68.74;100329.16;5071443;28;20441;-46
2021/04/05 01:57:44;;;;;;;16.85;8.38;;;;;;;4.43;68.42;100326.06;5073866;28;20028;-48
2021/04/05 02:00:15;;;;;;;11.20;5.88;;;;;;;4.33;68.94;100315.16;5070553;28;20067;-47
2021/04/05 02:02:41;;;;;;;11.63;6.15;;;;;;;4.41;68.51;100314.06;5075935;28;20036;-48
2021/04/05 02:05:09;;;;;;;18.02;7.60;;;;;;;4.55;67.84;100308.41;5072540;28;20137;-46
2021/04/05 02:07:40;;;;;;;14.07;6.68;;;;;;;4.48;68.20;100312.94;5071846;28;20028;-48
2021/04/05 02:10:26;;;;;;;12.20;7.25;;;;;;;4.64;67.64;100306.25;5070443;28;20033;-48
2021/04/05 02:12:53;;;;;;;14.07;6.50;;;;;;;4.61;67.64;100292.63;5069537;28;20040;-48
2021/04/05 02:15:19;;;;;;;14.93;7.13;;;;;;;4.48;68.19;100281.09;5072204;28;20024;-46
2021/04/05 02:17:46;;;;;;;12.23;6.25;;;;;;;4.59;67.77;100276.13;5070533;28;20105;-48
2021/04/05 02:20:14;;;;;;;12.20;6.10;;;;;;;4.58;67.93;100280.63;5074050;28;20024;-47
2021/04/05 02:22:45;;;;;;;13.07;6.50;;;;;;;4.43;68.53;100266.88;5074477;28;20033;-46
2021/04/05 02:25:16;;;;;;;12.70;7.22;;;;;;;4.48;68.34;100251.13;5069024;28;20028;-50
2021/04/05 02:27:47;;;;;;;12.35;6.90;;;;;;;4.53;68.17;100249.44;5068477;28;20032;-47
2021/04/05 02:30:22;;;;;;;13.93;6.47;;;;;;;4.47;68.45;100238.88;5076735;28;20031;-46
2021/04/05 02:32:53;;;;;;;;;;;;;;;4.39;68.97;100242.66;5074673;28;20024;-47
2021/04/05 02:35:18;;;;;;;13.25;6.95;;;;;;;4.49;68.50;100236.84;5072165;28;19912;-49
2021/04/05 02:37:44;;;;;;;12.82;6.43;;;;;;;4.45;68.68;100233.00;5070237;28;20077;-47
2021/04/05 02:40:12;;;;;;;13.75;6.68;;;;;;;4.52;68.15;100218.66;5075330;28;20788;-48
2021/04/05 02:42:38;;;;;;;14.98;7.22;;;;;;;4.42;68.87;100221.00;5055711;28;20475;-48
2021/04/05 02:45:06;;;;;;;19.20;7.25;;;;;;;4.40;69.14;100201.03;5070781;28;20059;-46
2021/04/05 02:47:32;;;;;;;13.93;6.38;;;;;;;4.43;68.93;100198.72;5070823;28;20059;-48
2021/04/05 02:49:58;;;;;;;16.98;7.05;;;;;;;4.48;68.50;100200.72;5071916;28;20062;-47
2021/04/05 02:52:24;;;;;;;10.82;6.22;;;;;;;4.51;68.54;100201.09;5059317;28;20506;-47
2021/04/05 02:54:50;;;;;;;13.88;7.22;;;;;;;4.60;67.94;100203.44;5073920;28;20078;-48
2021/04/05 02:57:16;;;;;;;18.23;7.55;;;;;;;4.57;68.11;100180.03;5072043;28;20082;-48
2021/04/05 02:59:41;;;;;;;11.00;6.85;;;;;;;4.55;68.17;100167.78;5069164;28;20059;-48
2021/04/05 03:02:07;;;;;;;14.77;7.82;;;;;;;4.51;68.40;100177.22;5073209;28;20490;-48
2021/04/05 03:04:34;;;;;;;14.13;8.02;;;;;;;4.43;68.62;100151.00;5074493;28;20028;-47
2021/04/05 03:06:59;;;;;;;18.73;8.05;;;;;;;4.54;68.23;100158.22;5073902;28;20596;-46
2021/04/05 03:09:26;;;;;;;17.23;9.35;;;;;;;4.33;69.44;100160.50;5070772;28;20062;-47
2021/04/05 03:11:55;;;;;;;17.70;8.80;;;;;;;4.34;69.50;100168.25;5069313;28;20032;-47
2021/04/05 03:14:22;;;;;;;14.85;7.93;;;;;;;4.41;68.93;100165.50;5070691;28;20107;-48
2021/04/05 03:16:49;;;;;;;18.70;10.10;;;;;;;4.40;69.04;100167.34;5069799;28;20043;-49
2021/04/05 03:19:15;;;;;;;16.58;8.35;;;;;;;4.37;69.08;100165.16;5075387;28;20032;-48
2021/04/05 03:21:43;;;;;;;20.90;9.75;;;;;;;4.44;68.40;100155.25;5076744;28;20027;-46
2021/04/05 03:24:11;;;;;;;17.95;9.20;;;;;;;4.42;68.74;100146.72;5071497;28;20025;-47
2021/04/05 03:26:37;;;;;;;17.40;8.75;;;;;;;4.49;68.16;100131.56;5073659;28;20032;-49
2021/04/05 03:29:04;;;;;;;21.52;10.43;;;;;;;4.42;68.56;100130.00;5072460;28;20024;-47
2021/04/05 03:31:34;;;;;;;19.98;8.98;;;;;;;4.50;68.10;100108.47;5071875;28;20149;-49
2021/04/05 03:34:27;;;;;;;15.75;8.85;;;;;;;4.39;68.47;100109.22;5073049;28;20048;-48
2021/04/05 03:37:09;;;;;;;20.92;9.25;;;;;;;4.22;69.43;100109.00;5059081;28;20051;-48
2021/04/05 03:39:35;;;;;;;22.35;10.68;;;;;;;4.23;69.02;100092.06;5071365;28;20031;-46
2021/04/05 03:42:25;;;;;;;20.55;9.77;;;;;;;4.39;68.17;100075.56;5068273;28;20020;-46
2021/04/05 03:45:11;;;;;;;25.25;10.73;;;;;;;4.35;68.06;100069.09;5070475;28;20513;-47
2021/04/05 03:47:46;;;;;;;21.77;10.00;;;;;;;4.45;67.75;100082.59;5073084;28;20498;-47
2021/04/05 03:50:31;;;;;;;23.10;10.52;;;;;;;4.33;68.34;100075.66;5073689;28;20035;-48
2021/04/05 03:53:06;;;;;;;18.58;9.98;;;;;;;4.34;68.46;100051.56;5070841;28;20035;-49
2021/04/05 03:55:32;;;;;;;21.33;11.10;;;;;;;4.50;67.39;100055.44;5069517;28;20036;-49
2021/04/05 03:58:00;;;;;;;18.88;10.68;;;;;;;4.38;67.63;100043.94;5071898;28;20028;-47
2021/04/05 04:00:29;;;;;;;20.05;9.60;;;;;;;4.42;67.51;100043.28;5067863;28;20031;-47
2021/04/05 04:02:56;;;;;;;26.02;11.07;;;;;;;4.30;68.30;100045.06;5070415;28;20028;-47
2021/04/05 04:05:45;;;;;;;25.17;11.30;;;;;;;4.41;67.49;100043.50;5053117;28;20367;-48
2021/04/05 04:10:50;;;;;;;25.85;11.85;;;;;;;4.37;67.58;100037.84;5067897;28;20028;-47
2021/04/05 04:13:18;;;;;;;28.00;12.75;;;;;;;4.17;68.36;100050.53;5070251;28;20024;-50
2021/04/05 04:15:49;;;;;;;24.70;13.27;;;;;;;4.27;68.02;100042.03;5066691;28;20090;-49
2021/04/05 04:18:19;;;;;;;25.88;12.90;;;;;;;4.32;67.64;100031.59;5071661;28;20032;-47
2021/04/05 04:20:46;;;;;;;23.45;11.52;;;;;;;4.32;67.62;100026.28;5066143;28;20094;-49
2021/04/05 04:23:13;;;;;;;29.88;14.18;;;;;;;4.17;68.23;100002.81;5070332;28;20375;-48
2021/04/05 04:25:39;;;;;;;25.80;11.55;;;;;;;4.29;67.81;99997.53;5077804;28;20487;-47
2021/04/05 04:28:05;;;;;;;28.38;13.13;;;;;;;4.32;67.54;99986.53;5063351;28;20039;-47
2021/04/05 04:30:32;;;;;;;26.88;12.50;;;;;;;4.25;68.05;99990.06;5076249;28;20139;-49
2021/04/05 04:33:09;;;;;;;33.22;14.52;;;;;;;4.28;67.88;99982.69;5074521;28;20103;-47
2021/04/05 04:35:37;;;;;;;25.30;11.15;;;;;;;4.29;67.76;99953.28;5074297;28;20024;-48
2021/04/05 04:38:03;;;;;;;31.13;14.38;;;;;;;4.24;68.24;99977.03;5072432;28;20478;-46
2021/04/05 04:40:31;;;;;;;28.35;13.20;;;;;;;4.28;67.96;99961.47;5073336;28;20032;-47
2021/04/05 04:42:58;;;;;;;29.02;14.20;;;;;;;4.30;67.88;99967.34;5076757;28;20153;-49
2021/04/05 04:45:24;;;;;;;29.52;13.30;;;;;;;4.33;67.41;99949.16;5079257;28;20032;-47
2021/04/05 04:47:55;;;;;;;31.13;14.68;;;;;;;4.35;67.51;99944.44;5077816;28;20408;-48
2021/04/05 04:50:22;;;;;;;30.75;15.35;;;;;;;4.29;68.25;99952.47;5070635;28;20413;-49
2021/04/05 04:52:48;;;;;;;35.22;16.77;;;;;;;4.44;67.26;99947.56;5074703;28;20711;-48
2021/04/05 04:55:15;;;;;;;36.13;16.52;;;;;;;4.38;67.42;99927.25;5071056;28;20020;-49
2021/04/05 04:57:41;;;;;;;32.47;14.60;;;;;;;4.54;66.71;99918.66;5078604;28;20043;-46
2021/04/05 05:00:08;;;;;;;33.10;16.00;;;;;;;4.57;66.53;99901.47;5070490;28;20028;-48
2021/04/05 05:02:39;;;;;;;34.65;16.17;;;;;;;4.48;66.95;99893.81;5070426;28;20088;-48
2021/04/05 05:05:06;;;;;;;30.95;14.20;;;;;;;4.51;66.65;99861.56;5075711;28;20117;-49
2021/04/05 05:07:34;;;;;;;30.67;14.23;;;;;;;4.46;66.83;99853.44;5074824;28;20123;-47
2021/04/05 05:10:01;;;;;;;36.03;15.93;;;;;;;4.46;67.05;99829.56;5075031;28;20051;-47
2021/04/05 05:12:27;;;;;;;37.28;16.10;;;;;;;4.68;66.02;99852.91;5072289;28;20033;-47
2021/04/05 05:14:53;;;;;;;38.53;15.93;;;;;;;4.66;66.16;99845.16;5074486;28;20035;-49
2021/04/05 05:17:19;;;;;;;36.53;16.13;;;;;;;4.67;66.26;99843.31;5074977;28;20024;-47
2021/04/05 05:19:46;;;;;;;38.38;16.95;;;;;;;4.67;66.17;99843.31;5080260;28;20419;-48
2021/04/05 05:22:16;;;;;;;35.85;16.15;;;;;;;4.76;65.97;99844.59;5075113;28;20502;-46
2021/04/05 05:24:47;;;;;;;32.78;15.02;;;;;;;4.68;66.32;99842.28;5079495;28;20042;-49
2021/04/05 05:27:14;;;;;;;31.05;14.00;;;;;;;4.76;65.88;99844.59;5073626;28;20390;-47
2021/04/05 05:29:40;;;;;;;33.95;15.82;;;;;;;4.75;66.15;99850.94;5075965;28;20029;-47
2021/04/05 05:32:07;;;;;;;39.95;17.70;;;;;;;4.65;66.47;99851.50;5077579;28;22148;-48
2021/04/05 05:34:33;;;;;;;38.58;16.77;;;;;;;4.75;66.40;99848.28;5069124;28;20405;-47
2021/04/05 05:36:59;;;;;;;37.92;16.65;;;;;;;4.81;66.23;99823.47;5071240;28;20383;-47
2021/04/05 05:39:25;;;;;;;31.48;15.50;;;;;;;4.73;66.08;99816.66;5071791;28;20062;-46
2021/04/05 05:42:05;;;;;;;31.52;14.20;;;;;;;4.84;65.83;99799.91;5074552;28;20060;-49
2021/04/05 05:44:42;;;;;;;39.03;17.25;;;;;;;4.85;65.94;99792.78;5071571;28;20032;-47
2021/04/05 05:47:30;;;;;;;37.83;15.93;;;;;;;4.87;65.55;99780.06;5073315;28;20536;-48
2021/04/05 05:49:55;;;;;;;35.25;16.35;;;;;;;4.98;65.10;99773.91;5070575;28;20036;-48
2021/04/05 05:52:42;;;;;;;34.55;15.35;;;;;;;4.89;65.56;99780.66;5071839;28;20685;-48
2021/04/05 05:55:32;;;;;;;31.65;15.43;;;;;;;4.87;65.62;99780.06;5070855;28;20037;-47
2021/04/05 05:58:13;;;;;;;34.85;15.27;;;;;;;5.02;65.10;99766.28;5072836;28;20034;-46
2021/04/05 06:00:48;;;;;;;32.10;16.40;;;;;;;4.96;65.51;99751.31;5076036;28;20409;-50
2021/04/05 06:03:29;;;;;;;;;;;;;;;5.06;64.99;99754.19;5076055;28;20500;-47
2021/04/05 06:06:13;;;;;;;31.23;14.48;;;;;;;5.06;65.12;99780.72;5076116;28;19912;-48
2021/04/05 06:09:12;;;;;;;32.30;16.38;;;;;;;5.04;65.24;99774.84;5078852;28;20024;-47
2021/04/05 06:11:46;;;;;;;37.67;15.93;;;;;;;5.03;65.39;99757.31;5073782;28;20107;-49
2021/04/05 06:14:30;;;;;;;35.25;14.05;;;;;;;5.08;65.38;99754.75;5070553;28;20028;-46
2021/04/05 06:17:14;;;;;;;26.95;13.50;;;;;;;5.06;65.26;99743.56;5079953;28;20426;-48
2021/04/05 06:19:51;;;;;;;32.08;13.57;;;;;;;5.24;64.52;99711.50;5074319;28;20048;-46
2021/04/05 06:22:30;;;;;;;36.80;13.85;;;;;;;5.22;64.86;99718.09;5080051;28;20040;-47
2021/04/05 06:25:06;;;;;;;30.60;14.13;;;;;;;5.23;64.96;99719.72;5073004;28;20033;-46
2021/04/05 06:28:24;;;;;;;38.25;16.05;;;;;;;5.29;64.70;99705.47;5074270;28;20028;-49
2021/04/05 06:31:37;;;;;;;37.42;16.27;;;;;;;5.15;65.53;99705.75;5060953;28;20119;-48
2021/04/05 06:34:35;;;;;;;35.38;15.32;;;;;;;5.31;64.95;99704.19;5043857;28;20051;-47
2021/04/05 06:37:16;;;;;;;36.47;15.55;;;;;;;5.20;65.98;99688.28;5074181;28;20494;-49
2021/04/05 06:39:48;;;;;;;38.67;16.05;;;;;;;5.37;65.08;99673.19;5069895;28;20056;-46
2021/04/05 06:42:55;;;;;;;36.30;15.77;;;;;;;5.21;66.15;99674.81;5071162;28;20024;-46
2021/04/05 06:46:12;;;;;;;32.08;14.55;;;;;;;5.35;66.11;99680.59;5065748;28;20067;-49
2021/04/05 06:48:57;;;;;;;37.25;16.92;;;;;;;5.22;68.47;99665.00;5025235;28;20175;-48
2021/04/05 06:52:00;;;;;;;29.48;13.90;;;;;;;5.10;70.26;99663.19;5068452;28;20036;-48
2021/04/05 06:55:03;;;;;;;35.65;17.15;;;;;;;4.99;72.06;99657.91;5068262;28;20099;-49
2021/04/05 06:57:56;;;;;;;23.70;12.60;;;;;;;4.91;73.20;99656.47;5073157;28;20115;-48
2021/04/05 07:00:42;;;;;;;39.28;17.92;;;;;;;4.88;73.71;99656.94;5073531;28;20020;-49
2021/04/05 07:03:17;;;;;;;37.55;15.80;;;;;;;4.72;75.58;99647.09;5067772;28;20043;-48
2021/04/05 07:06:01;;;;;;;51.78;17.65;;;;;;;4.63;76.97;99651.13;5069555;28;20029;-47
2021/04/05 07:08:33;;;;;;;36.08;17.55;;;;;;;4.52;78.52;99647.50;5071396;28;20118;-49
2021/04/05 07:11:20;;;;;;;41.45;18.40;;;;;;;4.46;79.74;99630.66;5072780;28;20044;-48
2021/04/05 07:13:55;;;;;;;48.00;20.08;;;;;;;4.40;80.02;99642.22;5075745;28;20028;-48
2021/04/05 07:16:37;;;;;;;40.08;18.23;;;;;;;4.45;79.58;99644.16;5061261;28;20130;-46
2021/04/05 07:19:05;;;;;;;37.38;17.35;;;;;;;4.37;80.89;99632.06;5073667;28;20025;-49
2021/04/05 07:22:12;;;;;;;39.22;18.55;;;;;;;4.41;80.71;99627.91;5074659;28;20024;-48
2021/04/05 07:24:48;;;;;;;52.63;18.45;;;;;;;4.43;80.86;99635.63;5075732;28;20611;-47
2021/04/05 07:27:25;;;;;;;45.10;19.17;;;;;;;4.42;81.57;99632.16;5076217;28;20123;-49
2021/04/05 07:30:03;;;;;;;46.80;19.42;;;;;;;4.39;82.17;99623.88;5076846;28;20054;-49
2021/04/05 07:32:50;;;;;;;46.28;19.60;;;;;;;4.33;82.53;99641.53;5075580;28;20024;-47
2021/04/05 07:35:25;;;;;;;33.20;16.48;;;;;;;4.39;82.29;99619.38;5070748;28;20808;-50
2021/04/05 07:38:09;;;;;;;47.28;19.17;;;;;;;4.41;82.35;99622.59;5070423;28;20032;-49
2021/04/05 07:40:44;;;;;;;38.95;17.98;;;;;;;4.35;83.18;99628.84;5068673;28;20028;-48
2021/04/05 07:43:35;;;;;;;40.95;18.85;;;;;;;4.42;82.91;99616.25;5056194;28;20027;-47
2021/04/05 07:46:31;;;;;;;37.28;19.58;;;;;;;4.47;82.85;99620.84;5068248;28;20062;-47
2021/04/05 07:49:10;;;;;;;41.17;18.02;;;;;;;4.50;82.19;99621.22;5068232;28;20024;-48
2021/04/05 07:51:47;;;;;;;41.88;19.50;;;;;;;4.59;82.05;99626.13;5077163;28;20034;-48
2021/04/05 07:54:15;;;;;;;40.10;18.48;;;;;;;4.61;82.50;99621.38;5077780;28;20386;-47
2021/04/05 07:56:49;;;;;;;37.10;17.80;;;;;;;4.72;81.46;99605.44;5076568;28;20479;-47
2021/04/05 07:59:28;;;;;;;40.80;19.98;;;;;;;4.67;81.19;99617.78;5077956;28;20392;-47
2021/04/05 08:02:25;;;;;;;41.03;19.17;;;;;;;4.76;81.50;99608.41;5072760;28;20028;-46
2021/04/05 08:05:02;;;;;;;41.90;17.52;;;;;;;4.79;81.58;99618.53;5073106;28;20509;-47
2021/04/05 08:07:52;;;;;;;40.75;17.98;;;;;;;4.75;81.68;99612.09;5063956;28;20036;-49
2021/04/05 08:10:50;;;;;;;41.67;19.88;;;;;;;4.73;81.50;99604.38;5084374;28;20538;-47
2021/04/05 08:13:24;;;;;;;39.53;18.30;;;;;;;4.72;80.95;99608.09;5063416;28;20048;-47
2021/04/05 08:16:12;;;;;;;42.70;17.73;;;;;;;4.76;81.07;99606.56;5072734;28;20036;-46
2021/04/05 08:18:44;;;;;;;36.47;17.85;;;;;;;4.79;81.82;99608.72;5061271;28;20148;-48
2021/04/05 08:21:35;;;;;;;40.00;19.35;;;;;;;4.72;82.27;99601.97;5060094;28;20020;-47
2021/04/05 08:24:32;;;;;;;36.08;16.88;;;;;;;4.72;82.42;99604.63;5066505;28;20137;-46
2021/04/05 08:27:07;;;;;;;37.75;18.55;;;;;;;4.66;82.64;99606.34;5067604;28;20019;-48
2021/04/05 08:29:41;;;;;;;40.03;20.40;;;;;;;4.55;84.22;99613.34;5067881;28;20032;-48
2021/04/05 08:32:22;;;;;;;41.67;18.63;;;;;;;4.49;83.88;99640.81;5051490;28;20845;-47
2021/04/05 08:35:08;;;;;;;38.58;20.13;;;;;;;4.49;85.01;99698.38;5073183;28;20358;-47
2021/04/05 08:38:05;;;;;;;6.32;3.10;;;;;;;3.38;80.95;99707.97;5069480;28;20020;-48
2021/04/05 08:41:09;;;;;;;7.05;2.85;;;;;;;2.80;83.90;99718.31;5027096;28;20036;-47
2021/04/05 08:44:01;;;;;;;8.73;3.38;;;;;;;2.25;85.81;99719.13;5070816;28;20601;-46
2021/04/05 08:46:32;;;;;;;6.90;3.10;;;;;;;2.10;87.44;99706.25;5064442;28;20029;-46
2021/04/05 08:49:05;;;;;;;7.07;3.75;;;;;;;2.04;88.26;99722.19;5065504;28;20463;-48
2021/04/05 08:51:53;;;;;;;5.80;3.05;;;;;;;2.03;89.62;99721.38;5066607;28;20542;-47
2021/04/05 08:54:26;;;;;;;5.18;2.10;;;;;;;2.10;89.48;99721.31;5067921;28;20058;-47
2021/04/05 08:57:07;;;;;;;6.10;2.85;;;;;;;2.29;89.11;99719.50;5069354;28;20611;-46
2021/04/05 08:59:38;;;;;;;7.40;2.97;;;;;;;2.52;88.85;99718.88;5070512;28;20146;-47
2021/04/05 09:02:37;;;;;;;4.07;2.10;;;;;;;2.62;88.60;99722.59;5060811;28;20041;-48
2021/04/05 09:05:09;;;;;;;6.88;2.28;;;;;;;2.69;88.51;99723.34;5068698;28;20861;-47
2021/04/05 09:07:34;;;;;;;3.72;2.03;;;;;;;2.39;87.25;99719.81;5064371;28;20024;-48
2021/04/05 09:10:08;;;;;;;3.15;1.50;;;;;;;2.64;88.45;99720.53;5072940;28;20044;-47
2021/04/05 09:12:40;;;;;;;4.20;2.10;;;;;;;2.59;87.31;99725.69;5075380;28;20032;-47
2021/04/05 09:15:27;;;;;;;4.97;1.67;;;;;;;2.67;87.38;99725.38;5076079;28;20028;-47
2021/04/05 09:18:20;;;;;;;2.58;1.60;;;;;;;2.54;87.23;99751.19;5077000;28;20021;-47
2021/04/05 09:21:08;;;;;;;2.95;1.10;;;;;;;2.32;86.01;99742.84;5067450;28;20032;-47
2021/04/05 09:24:11;;;;;;;2.13;1.08;;;;;;;2.21;87.78;99735.66;5073104;28;20064;-49
2021/04/05 09:27:11;;;;;;;3.67;1.20;;;;;;;2.35;86.14;99722.09;5075355;28;20096;-48
2021/04/05 09:29:58;;;;;;;2.20;1.17;;;;;;;2.28;84.60;99721.34;5074617;28;20028;-48
2021/04/05 09:33:05;;;;;;;3.63;1.10;;;;;;;2.32;86.02;99708.47;5069559;28;20034;-48
2021/04/05 09:35:51;;;;;;;1.52;0.80;;;;;;;2.37;84.93;99698.88;5037380;28;20052;-47
2021/04/05 09:38:34;;;;;;;4.13;1.25;;;;;;;2.45;83.10;99708.34;5074021;28;20028;-47
2021/04/05 09:41:09;;;;;;;3.17;1.00;;;;;;;2.42;83.65;99692.94;5059958;28;20082;-47
2021/04/05 09:44:20;;;;;;;3.97;1.90;;;;;;;2.50;84.31;99703.19;5068077;28;20051;-46
2021/04/05 09:47:24;;;;;;;3.15;1.00;;;;;;;2.59;83.02;99686.03;5055769;28;20091;-46
2021/04/05 09:49:59;;;;;;;2.63;1.10;;;;;;;2.55;83.71;99698.06;5029476;28;20078;-47
2021/04/05 09:52:42;;;;;;;;;;;;;;;2.63;81.55;99705.69;5072225;28;20032;-46
2021/04/05 09:55:12;;;;;;;5.70;1.10;;;;;;;2.77;81.18;99684.38;5069363;28;19916;-48
2021/04/05 09:57:41;;;;;;;4.20;1.48;;;;;;;2.89;81.00;99690.56;5070341;28;20032;-47
2021/04/05 10:00:11;;;;;;;4.25;1.08;;;;;;;2.98;79.82;99691.84;5069697;28;20021;-46
2021/04/05 10:02:45;;;;;;;1.60;0.80;;;;;;;3.00;79.44;99700.34;5058806;28;20149;-46
2021/04/05 10:05:12;;;;;;;2.87;0.80;;;;;;;3.13;79.96;99694.88;5074292;28;20028;-47
2021/04/05 10:07:45;;;;;;;3.50;1.40;;;;;;;3.06;77.64;99694.19;5071417;28;20350;-47
2021/04/05 10:10:12;;;;;;;4.30;0.95;;;;;;;3.14;77.71;99685.91;5059865;28;20027;-49
2021/04/05 10:12:40;;;;;;;4.82;1.15;;;;;;;3.14;77.72;99688.56;5072408;28;20090;-46
2021/04/05 10:15:08;;;;;;;1.38;0.88;;;;;;;3.23;76.94;99689.88;5067186;28;20024;-47
2021/04/05 10:17:34;;;;;;;1.63;0.70;;;;;;;3.26;76.45;99700.00;5072777;28;20143;-46
2021/04/05 10:20:05;;;;;;;3.20;1.15;;;;;;;3.39;78.45;99696.34;5071828;28;20031;-47
2021/04/05 10:22:40;;;;;;;3.55;1.13;;;;;;;3.51;77.08;99691.88;5069613;28;20643;-46
2021/04/05 10:25:08;;;;;;;1.42;0.75;;;;;;;3.41;76.56;99699.59;5070140;28;20103;-49
2021/04/05 10:27:34;;;;;;;2.67;1.00;;;;;;;3.34;77.40;99702.31;5067337;28;20032;-46
2021/04/05 10:30:02;;;;;;;5.00;1.45;;;;;;;3.40;77.10;99707.72;5069213;28;20118;-47
2021/04/05 10:32:28;;;;;;;2.13;1.00;;;;;;;3.42;76.29;99708.34;5059972;28;20490;-46
2021/04/05 10:34:59;;;;;;;1.77;0.90;;;;;;;3.45;76.21;99713.19;5070874;28;20039;-46
2021/04/05 10:37:39;;;;;;;4.55;0.85;;;;;;;3.41;75.47;99696.94;5071588;28;20055;-47
2021/04/05 10:40:28;;;;;;;1.08;0.63;;;;;;;3.56;76.61;99704.44;5067539;28;20036;-46
2021/04/05 10:42:55;;;;;;;2.38;0.68;;;;;;;3.53;74.85;99703.06;5073633;28;20021;-48
2021/04/05 10:45:24;;;;;;;5.32;1.02;;;;;;;3.64;74.08;99712.06;5069858;28;20055;-47
2021/04/05 10:48:35;;;;;;;3.63;1.17;;;;;;;3.62;74.19;99700.91;5069458;28;20100;-47
2021/04/05 10:51:23;;;;;;;6.03;1.75;;;;;;;3.68;74.90;99713.22;5053119;28;20044;-47
2021/04/05 10:54:12;;;;;;;3.47;0.85;;;;;;;3.84;74.21;99709.91;5071165;28;22067;-49
2021/04/05 10:56:48;;;;;;;2.47;0.90;;;;;;;3.85;74.27;99706.22;5069407;28;20058;-49
2021/04/05 10:59:37;;;;;;;2.55;1.10;;;;;;;4.00;74.82;99711.06;5080149;28;20028;-46
2021/04/05 11:02:11;;;;;;;2.13;0.90;;;;;;;4.09;72.87;99706.22;5079999;28;20089;-47
2021/04/05 11:04:38;;;;;;;0.82;0.60;;;;;;;4.18;72.96;99715.44;5076815;28;20058;-46
2021/04/05 11:07:08;;;;;;;3.03;0.95;;;;;;;4.11;73.74;99704.13;5076530;28;20590;-48
2021/04/05 11:09:40;;;;;;;2.15;0.75;;;;;;;4.23;72.67;99720.84;5072018;28;20075;-47
2021/04/05 11:12:09;;;;;;;3.10;0.90;;;;;;;4.30;70.92;99710.13;5073592;28;20027;-46
2021/04/05 11:14:35;;;;;;;4.07;1.00;;;;;;;4.25;70.32;99713.47;5074948;28;20028;-46
2021/04/05 11:17:04;;;;;;;1.13;0.75;;;;;;;4.28;69.46;99710.34;5075375;28;20032;-48
2021/04/05 11:19:40;;;;;;;2.92;0.82;;;;;;;4.41;70.23;99718.06;5072895;28;20046;-46
2021/04/05 11:22:13;;;;;;;3.20;1.20;;;;;;;4.49;70.25;99715.09;5077500;28;20048;-46
2021/04/05 11:24:39;;;;;;;3.72;0.65;;;;;;;4.63;70.57;99754.59;5071874;28;20073;-47
2021/04/05 11:27:10;;;;;;;1.48;1.05;;;;;;;4.15;69.99;99806.06;5074514;28;20037;-46
2021/04/05 11:29:41;;;;;;;1.35;0.30;;;;;;;2.78;73.65;99826.19;5069800;28;20606;-48
2021/04/05 11:32:13;;;;;;;0.68;0.40;;;;;;;2.07;78.44;99828.25;5076323;28;20027;-46
2021/04/05 11:34:42;;;;;;;0.45;0.30;;;;;;;1.48;81.14;99821.53;5075389;28;20600;-47
2021/04/05 11:37:13;;;;;;;1.48;0.63;;;;;;;1.01;82.50;99814.00;5079900;28;20028;-46
2021/04/05 11:39:44;;;;;;;1.95;0.40;;;;;;;1.02;83.43;99810.34;5076637;28;20028;-48
2021/04/05 11:42:10;;;;;;;0.30;0.30;;;;;;;1.09;83.86;99816.44;5069856;28;20047;-47
2021/04/05 11:44:50;;;;;;;1.23;0.40;;;;;;;1.13;83.75;99815.78;5076444;28;20065;-47
2021/04/05 11:47:19;;;;;;;0.50;0.30;;;;;;;1.15;84.13;99824.31;5078008;28;20513;-46
2021/04/05 11:49:46;;;;;;;1.40;0.47;;;;;;;0.78;84.54;99811.84;5072810;28;20084;-46
2021/04/05 11:52:19;;;;;;;0.68;0.40;;;;;;;0.90;85.50;99813.66;5079677;28;20020;-47
2021/04/05 11:54:56;;;;;;;1.20;0.47;;;;;;;1.08;85.46;99812.16;5073062;28;20070;-46
2021/04/05 11:57:27;;;;;;;0.40;0.40;;;;;;;1.18;84.82;99815.16;5077626;28;20091;-49
2021/04/05 12:00:02;;;;;;;0.65;0.40;;;;;;;1.46;84.62;99817.47;5077740;28;20016;-48
2021/04/05 12:02:35;;;;;;;0.70;0.32;;;;;;;1.31;84.08;99817.75;5072026;28;20031;-46
2021/04/05 12:05:08;;;;;;;1.48;0.40;;;;;;;1.21;83.66;99817.38;5073086;28;20117;-47
2021/04/05 12:07:36;;;;;;;3.25;0.82;;;;;;;1.48;84.60;99823.34;5070111;28;20111;-47
2021/04/05 12:10:19;;;;;;;2.15;0.85;;;;;;;1.56;83.90;99817.81;5070990;28;20044;-49